sensor_id;sensor_type;location;lat;lon;timestamp;temperature;humidity
62589;DHT22;58504;48.770;9.148;2023-07-08T00:00:18;24.40;51.60
62589;DHT22;58504;48.770;9.148;2023-07-08T00:02:47;24.40;51.60
62589;DHT22;58504;48.770;9.148;2023-07-08T00:05:17;24.40;51.70
62589;DHT22;58504;48.770;9.148;2023-07-08T00:07:45;24.40;51.60
62589;DHT22;58504;48.770;9.148;2023-07-08T00:10:14;24.40;51.60
62589;DHT22;58504;48.770;9.148;2023-07-08T00:12:41;24.40;51.60
62589;DHT22;58504;48.770;9.148;2023-07-08T00:15:09;24.40;51.60
62589;DHT22;58504;48.770;9.148;2023-07-08T00:17:36;24.40;51.70
62589;DHT22;58504;48.770;9.148;2023-07-08T00:20:11;24.40;51.60
62589;DHT22;58504;48.770;9.148;2023-07-08T00:22:39;24.40;51.60
62589;DHT22;58504;48.770;9.148;2023-07-08T00:25:07;24.30;51.50
62589;DHT22;58504;48.770;9.148;2023-07-08T00:27:34;24.40;51.60
62589;DHT22;58504;48.770;9.148;2023-07-08T00:30:00;24.30;51.60
62589;DHT22;58504;48.770;9.148;2023-07-08T00:32:27;24.30;51.50
62589;DHT22;58504;48.770;9.148;2023-07-08T00:34:54;24.40;51.70
62589;DHT22;58504;48.770;9.148;2023-07-08T00:37:22;24.30;51.50
62589;DHT22;58504;48.770;9.148;2023-07-08T00:39:49;24.30;51.60
62589;DHT22;58504;48.770;9.148;2023-07-08T00:42:19;24.30;51.50
62589;DHT22;58504;48.770;9.148;2023-07-08T00:44:48;24.30;51.50
62589;DHT22;58504;48.770;9.148;2023-07-08T00:47:15;24.40;51.70
62589;DHT22;58504;48.770;9.148;2023-07-08T00:49:45;24.30;51.60
62589;DHT22;58504;48.770;9.148;2023-07-08T00:52:24;24.30;51.60
62589;DHT22;58504;48.770;9.148;2023-07-08T00:54:52;24.30;51.60
62589;DHT22;58504;48.770;9.148;2023-07-08T00:57:21;24.30;51.60
62589;DHT22;58504;48.770;9.148;2023-07-08T00:59:53;24.40;51.70
62589;DHT22;58504;48.770;9.148;2023-07-08T01:02:24;24.40;51.80
62589;DHT22;58504;48.770;9.148;2023-07-08T01:04:56;24.30;51.70
62589;DHT22;58504;48.770;9.148;2023-07-08T01:07:26;24.30;51.70
62589;DHT22;58504;48.770;9.148;2023-07-08T01:09:57;24.30;51.80
62589;DHT22;58504;48.770;9.148;2023-07-08T01:12:27;24.30;51.70
62589;DHT22;58504;48.770;9.148;2023-07-08T01:14:55;24.30;51.80
62589;DHT22;58504;48.770;9.148;2023-07-08T01:17:23;24.30;51.80
62589;DHT22;58504;48.770;9.148;2023-07-08T01:19:50;24.30;51.70
62589;DHT22;58504;48.770;9.148;2023-07-08T01:22:22;24.30;51.70
62589;DHT22;58504;48.770;9.148;2023-07-08T01:24:49;24.30;51.70
62589;DHT22;58504;48.770;9.148;2023-07-08T01:27:18;24.30;51.70
62589;DHT22;58504;48.770;9.148;2023-07-08T01:29:46;24.30;51.70
62589;DHT22;58504;48.770;9.148;2023-07-08T01:32:14;24.30;51.70
62589;DHT22;58504;48.770;9.148;2023-07-08T01:34:44;24.30;51.60
62589;DHT22;58504;48.770;9.148;2023-07-08T01:37:33;24.30;51.70
62589;DHT22;58504;48.770;9.148;2023-07-08T01:40:15;24.30;51.70
62589;DHT22;58504;48.770;9.148;2023-07-08T01:42:42;24.30;51.70
62589;DHT22;58504;48.770;9.148;2023-07-08T01:45:11;24.30;51.70
62589;DHT22;58504;48.770;9.148;2023-07-08T01:47:40;24.30;51.70
62589;DHT22;58504;48.770;9.148;2023-07-08T01:50:08;24.30;51.70
62589;DHT22;58504;48.770;9.148;2023-07-08T01:52:37;24.30;51.70
62589;DHT22;58504;48.770;9.148;2023-07-08T01:55:05;24.30;51.70
62589;DHT22;58504;48.770;9.148;2023-07-08T01:57:32;24.30;51.70
62589;DHT22;58504;48.770;9.148;2023-07-08T01:59:58;24.20;51.60
62589;DHT22;58504;48.770;9.148;2023-07-08T02:02:25;24.20;51.70
62589;DHT22;58504;48.770;9.148;2023-07-08T02:04:52;24.20;51.70
62589;DHT22;58504;48.770;9.148;2023-07-08T02:07:19;24.20;51.70
62589;DHT22;58504;48.770;9.148;2023-07-08T02:09:47;24.30;51.70
62589;DHT22;58504;48.770;9.148;2023-07-08T02:12:13;24.20;51.70
62589;DHT22;58504;48.770;9.148;2023-07-08T02:14:40;24.20;51.70
62589;DHT22;58504;48.770;9.148;2023-07-08T02:17:07;24.30;51.80
62589;DHT22;58504;48.770;9.148;2023-07-08T02:19:34;24.20;51.70
62589;DHT22;58504;48.770;9.148;2023-07-08T02:22:00;24.20;51.70
62589;DHT22;58504;48.770;9.148;2023-07-08T02:24:27;24.20;51.70
62589;DHT22;58504;48.770;9.148;2023-07-08T02:26:55;24.20;51.70
62589;DHT22;58504;48.770;9.148;2023-07-08T02:29:23;24.20;51.70
62589;DHT22;58504;48.770;9.148;2023-07-08T02:31:49;24.20;51.70
62589;DHT22;58504;48.770;9.148;2023-07-08T02:34:16;24.20;51.70
62589;DHT22;58504;48.770;9.148;2023-07-08T02:36:43;24.20;51.80
62589;DHT22;58504;48.770;9.148;2023-07-08T02:39:10;24.20;51.80
62589;DHT22;58504;48.770;9.148;2023-07-08T02:41:37;24.20;51.80
62589;DHT22;58504;48.770;9.148;2023-07-08T02:44:05;24.20;51.80
62589;DHT22;58504;48.770;9.148;2023-07-08T02:46:32;24.20;51.80
62589;DHT22;58504;48.770;9.148;2023-07-08T02:48:59;24.20;51.70
62589;DHT22;58504;48.770;9.148;2023-07-08T02:51:25;24.20;51.80
62589;DHT22;58504;48.770;9.148;2023-07-08T02:53:52;24.20;51.80
62589;DHT22;58504;48.770;9.148;2023-07-08T02:56:19;24.20;51.80
62589;DHT22;58504;48.770;9.148;2023-07-08T02:58:46;24.20;51.80
62589;DHT22;58504;48.770;9.148;2023-07-08T03:01:15;24.20;51.80
62589;DHT22;58504;48.770;9.148;2023-07-08T03:03:43;24.20;51.80
62589;DHT22;58504;48.770;9.148;2023-07-08T03:06:10;24.20;51.80
62589;DHT22;58504;48.770;9.148;2023-07-08T03:08:37;24.20;51.80
62589;DHT22;58504;48.770;9.148;2023-07-08T03:11:05;24.20;51.80
62589;DHT22;58504;48.770;9.148;2023-07-08T03:13:33;24.20;51.80
62589;DHT22;58504;48.770;9.148;2023-07-08T03:16:01;24.20;51.90
62589;DHT22;58504;48.770;9.148;2023-07-08T03:18:29;24.20;51.90
62589;DHT22;58504;48.770;9.148;2023-07-08T03:20:57;24.20;51.90
62589;DHT22;58504;48.770;9.148;2023-07-08T03:23:24;24.20;51.90
62589;DHT22;58504;48.770;9.148;2023-07-08T03:25:52;24.20;51.90
62589;DHT22;58504;48.770;9.148;2023-07-08T03:28:18;24.20;51.90
62589;DHT22;58504;48.770;9.148;2023-07-08T03:30:51;24.20;51.90
62589;DHT22;58504;48.770;9.148;2023-07-08T03:33:18;24.20;51.80
62589;DHT22;58504;48.770;9.148;2023-07-08T03:35:46;24.20;51.90
62589;DHT22;58504;48.770;9.148;2023-07-08T03:38:13;24.20;51.90
62589;DHT22;58504;48.770;9.148;2023-07-08T03:40:40;24.20;51.90
62589;DHT22;58504;48.770;9.148;2023-07-08T03:43:07;24.20;51.80
62589;DHT22;58504;48.770;9.148;2023-07-08T03:45:33;24.20;51.70
62589;DHT22;58504;48.770;9.148;2023-07-08T03:48:00;24.20;51.70
62589;DHT22;58504;48.770;9.148;2023-07-08T03:50:27;24.20;51.80
62589;DHT22;58504;48.770;9.148;2023-07-08T03:52:56;24.20;51.80
62589;DHT22;58504;48.770;9.148;2023-07-08T03:55:23;24.20;51.70
62589;DHT22;58504;48.770;9.148;2023-07-08T03:57:50;24.20;51.70
62589;DHT22;58504;48.770;9.148;2023-07-08T04:00:16;24.20;51.70
62589;DHT22;58504;48.770;9.148;2023-07-08T04:02:45;24.20;51.60
62589;DHT22;58504;48.770;9.148;2023-07-08T04:05:14;24.30;51.70
62589;DHT22;58504;48.770;9.148;2023-07-08T04:07:41;24.20;51.70
62589;DHT22;58504;48.770;9.148;2023-07-08T04:10:10;24.20;51.70
62589;DHT22;58504;48.770;9.148;2023-07-08T04:12:37;24.20;51.70
62589;DHT22;58504;48.770;9.148;2023-07-08T04:15:06;24.20;51.70
62589;DHT22;58504;48.770;9.148;2023-07-08T04:17:34;24.30;51.70
62589;DHT22;58504;48.770;9.148;2023-07-08T04:20:02;24.30;51.80
62589;DHT22;58504;48.770;9.148;2023-07-08T04:22:29;24.30;51.80
62589;DHT22;58504;48.770;9.148;2023-07-08T04:24:56;24.30;51.70
62589;DHT22;58504;48.770;9.148;2023-07-08T04:27:24;24.30;51.60
62589;DHT22;58504;48.770;9.148;2023-07-08T04:29:51;24.30;51.70
62589;DHT22;58504;48.770;9.148;2023-07-08T04:32:18;24.30;51.70
62589;DHT22;58504;48.770;9.148;2023-07-08T04:34:44;24.30;51.60
62589;DHT22;58504;48.770;9.148;2023-07-08T04:37:11;24.40;51.70
62589;DHT22;58504;48.770;9.148;2023-07-08T04:39:38;24.40;51.70
62589;DHT22;58504;48.770;9.148;2023-07-08T04:42:05;24.40;51.60
62589;DHT22;58504;48.770;9.148;2023-07-08T04:44:33;24.50;51.60
62589;DHT22;58504;48.770;9.148;2023-07-08T04:47:00;24.40;51.30
62589;DHT22;58504;48.770;9.148;2023-07-08T04:49:27;24.50;51.20
62589;DHT22;58504;48.770;9.148;2023-07-08T04:51:57;24.50;51.30
62589;DHT22;58504;48.770;9.148;2023-07-08T04:54:24;24.50;51.40
62589;DHT22;58504;48.770;9.148;2023-07-08T04:56:51;24.50;51.30
62589;DHT22;58504;48.770;9.148;2023-07-08T04:59:21;24.60;51.30
62589;DHT22;58504;48.770;9.148;2023-07-08T05:01:50;24.60;51.40
62589;DHT22;58504;48.770;9.148;2023-07-08T05:04:19;24.60;51.40
62589;DHT22;58504;48.770;9.148;2023-07-08T05:06:46;24.60;51.50
62589;DHT22;58504;48.770;9.148;2023-07-08T05:09:13;24.50;51.40
62589;DHT22;58504;48.770;9.148;2023-07-08T05:11:40;24.50;51.40
62589;DHT22;58504;48.770;9.148;2023-07-08T05:14:07;24.60;51.50
62589;DHT22;58504;48.770;9.148;2023-07-08T05:16:35;24.60;51.40
62589;DHT22;58504;48.770;9.148;2023-07-08T05:19:03;24.60;51.40
62589;DHT22;58504;48.770;9.148;2023-07-08T05:21:30;24.60;51.30
62589;DHT22;58504;48.770;9.148;2023-07-08T05:23:59;24.60;51.30
62589;DHT22;58504;48.770;9.148;2023-07-08T05:26:26;24.70;51.30
62589;DHT22;58504;48.770;9.148;2023-07-08T05:28:52;24.70;51.20
62589;DHT22;58504;48.770;9.148;2023-07-08T05:31:19;24.80;51.20
62589;DHT22;58504;48.770;9.148;2023-07-08T05:33:46;24.70;51.00
62589;DHT22;58504;48.770;9.148;2023-07-08T05:36:14;24.70;51.00
62589;DHT22;58504;48.770;9.148;2023-07-08T05:38:41;24.80;51.00
62589;DHT22;58504;48.770;9.148;2023-07-08T05:41:07;24.80;51.10
62589;DHT22;58504;48.770;9.148;2023-07-08T05:43:34;24.80;51.00
62589;DHT22;58504;48.770;9.148;2023-07-08T05:46:02;24.80;51.00
62589;DHT22;58504;48.770;9.148;2023-07-08T05:48:28;24.80;51.00
62589;DHT22;58504;48.770;9.148;2023-07-08T05:50:55;24.80;51.00
62589;DHT22;58504;48.770;9.148;2023-07-08T05:53:24;24.80;51.00
62589;DHT22;58504;48.770;9.148;2023-07-08T05:55:51;24.80;50.90
62589;DHT22;58504;48.770;9.148;2023-07-08T05:58:17;24.90;50.90
62589;DHT22;58504;48.770;9.148;2023-07-08T06:00:45;24.90;50.90
62589;DHT22;58504;48.770;9.148;2023-07-08T06:03:12;24.90;50.80
62589;DHT22;58504;48.770;9.148;2023-07-08T06:05:39;24.90;50.80
62589;DHT22;58504;48.770;9.148;2023-07-08T06:08:06;24.90;50.70
62589;DHT22;58504;48.770;9.148;2023-07-08T06:10:40;25.00;50.80
62589;DHT22;58504;48.770;9.148;2023-07-08T06:13:07;25.00;50.80
62589;DHT22;58504;48.770;9.148;2023-07-08T06:15:34;25.00;50.60
62589;DHT22;58504;48.770;9.148;2023-07-08T06:18:01;25.10;50.60
62589;DHT22;58504;48.770;9.148;2023-07-08T06:20:28;25.10;50.50
62589;DHT22;58504;48.770;9.148;2023-07-08T06:22:55;25.20;50.30
62589;DHT22;58504;48.770;9.148;2023-07-08T06:25:22;25.20;50.20
62589;DHT22;58504;48.770;9.148;2023-07-08T06:27:50;25.20;50.10
62589;DHT22;58504;48.770;9.148;2023-07-08T06:30:17;25.30;49.90
62589;DHT22;58504;48.770;9.148;2023-07-08T06:32:44;25.30;49.50
62589;DHT22;58504;48.770;9.148;2023-07-08T06:35:11;25.30;49.20
62589;DHT22;58504;48.770;9.148;2023-07-08T06:37:37;25.30;48.90
62589;DHT22;58504;48.770;9.148;2023-07-08T06:40:05;25.30;48.60
62589;DHT22;58504;48.770;9.148;2023-07-08T06:42:32;25.30;48.60
62589;DHT22;58504;48.770;9.148;2023-07-08T06:45:00;25.30;48.50
62589;DHT22;58504;48.770;9.148;2023-07-08T06:47:28;25.30;48.60
62589;DHT22;58504;48.770;9.148;2023-07-08T06:49:55;25.40;48.60
62589;DHT22;58504;48.770;9.148;2023-07-08T06:52:22;25.40;48.50
62589;DHT22;58504;48.770;9.148;2023-07-08T06:54:48;25.40;48.90
62589;DHT22;58504;48.770;9.148;2023-07-08T06:57:15;25.40;49.10
62589;DHT22;58504;48.770;9.148;2023-07-08T06:59:42;25.40;49.70
62589;DHT22;58504;48.770;9.148;2023-07-08T07:02:10;25.50;49.10
62589;DHT22;58504;48.770;9.148;2023-07-08T07:04:37;25.40;49.10
62589;DHT22;58504;48.770;9.148;2023-07-08T07:07:04;25.30;49.10
62589;DHT22;58504;48.770;9.148;2023-07-08T07:09:31;25.30;49.20
62589;DHT22;58504;48.770;9.148;2023-07-08T07:11:57;25.20;49.20
62589;DHT22;58504;48.770;9.148;2023-07-08T07:14:24;25.20;49.40
62589;DHT22;58504;48.770;9.148;2023-07-08T07:16:51;25.10;49.50
62589;DHT22;58504;48.770;9.148;2023-07-08T07:19:19;25.10;49.50
62589;DHT22;58504;48.770;9.148;2023-07-08T07:21:47;25.10;49.60
62589;DHT22;58504;48.770;9.148;2023-07-08T07:24:13;25.10;49.60
62589;DHT22;58504;48.770;9.148;2023-07-08T07:26:40;25.10;49.50
62589;DHT22;58504;48.770;9.148;2023-07-08T07:29:07;25.10;49.60
62589;DHT22;58504;48.770;9.148;2023-07-08T07:31:34;25.10;49.50
62589;DHT22;58504;48.770;9.148;2023-07-08T07:34:01;25.10;49.40
62589;DHT22;58504;48.770;9.148;2023-07-08T07:36:30;25.10;49.40
62589;DHT22;58504;48.770;9.148;2023-07-08T07:38:56;25.10;49.70
62589;DHT22;58504;48.770;9.148;2023-07-08T07:41:23;25.10;49.90
62589;DHT22;58504;48.770;9.148;2023-07-08T07:43:50;25.10;50.20
62589;DHT22;58504;48.770;9.148;2023-07-08T07:46:17;25.20;50.40
62589;DHT22;58504;48.770;9.148;2023-07-08T07:48:43;25.10;50.30
62589;DHT22;58504;48.770;9.148;2023-07-08T07:51:10;25.10;50.30
62589;DHT22;58504;48.770;9.148;2023-07-08T07:53:39;25.30;50.30
62589;DHT22;58504;48.770;9.148;2023-07-08T07:56:07;25.40;49.90
62589;DHT22;58504;48.770;9.148;2023-07-08T07:58:34;26.00;49.90
62589;DHT22;58504;48.770;9.148;2023-07-08T08:01:01;27.00;47.80
62589;DHT22;58504;48.770;9.148;2023-07-08T08:03:28;28.50;45.30
62589;DHT22;58504;48.770;9.148;2023-07-08T08:05:54;30.10;42.20
62589;DHT22;58504;48.770;9.148;2023-07-08T08:08:21;31.00;40.20
62589;DHT22;58504;48.770;9.148;2023-07-08T08:10:50;31.80;38.60
62589;DHT22;58504;48.770;9.148;2023-07-08T08:13:17;32.30;37.60
62589;DHT22;58504;48.770;9.148;2023-07-08T08:15:43;32.90;36.90
62589;DHT22;58504;48.770;9.148;2023-07-08T08:18:10;33.50;35.90
62589;DHT22;58504;48.770;9.148;2023-07-08T08:20:37;33.00;35.40
62589;DHT22;58504;48.770;9.148;2023-07-08T08:23:05;31.60;37.10
62589;DHT22;58504;48.770;9.148;2023-07-08T08:25:33;31.10;38.50
62589;DHT22;58504;48.770;9.148;2023-07-08T08:28:01;30.40;39.70
62589;DHT22;58504;48.770;9.148;2023-07-08T08:30:27;29.80;40.70
62589;DHT22;58504;48.770;9.148;2023-07-08T08:32:54;29.40;41.50
62589;DHT22;58504;48.770;9.148;2023-07-08T08:35:21;29.10;42.10
62589;DHT22;58504;48.770;9.148;2023-07-08T08:37:48;28.90;42.50
62589;DHT22;58504;48.770;9.148;2023-07-08T08:40:17;28.70;42.70
62589;DHT22;58504;48.770;9.148;2023-07-08T08:42:46;28.70;42.90
62589;DHT22;58504;48.770;9.148;2023-07-08T08:45:21;28.60;43.00
62589;DHT22;58504;48.770;9.148;2023-07-08T08:47:54;28.50;43.10
62589;DHT22;58504;48.770;9.148;2023-07-08T08:50:31;28.40;43.30
62589;DHT22;58504;48.770;9.148;2023-07-08T08:53:01;28.30;43.60
62589;DHT22;58504;48.770;9.148;2023-07-08T08:55:28;28.80;43.10
62589;DHT22;58504;48.770;9.148;2023-07-08T08:58:02;29.60;41.70
62589;DHT22;58504;48.770;9.148;2023-07-08T09:00:41;30.30;40.40
62589;DHT22;58504;48.770;9.148;2023-07-08T09:03:14;30.20;39.70
62589;DHT22;58504;48.770;9.148;2023-07-08T09:05:42;29.80;40.30
62589;DHT22;58504;48.770;9.148;2023-07-08T09:08:13;29.80;40.70
62589;DHT22;58504;48.770;9.148;2023-07-08T09:10:45;30.10;40.20
62589;DHT22;58504;48.770;9.148;2023-07-08T09:13:18;30.20;40.00
62589;DHT22;58504;48.770;9.148;2023-07-08T09:15:57;30.20;39.80
62589;DHT22;58504;48.770;9.148;2023-07-08T09:18:29;30.20;39.80
62589;DHT22;58504;48.770;9.148;2023-07-08T09:20:58;30.10;40.00
62589;DHT22;58504;48.770;9.148;2023-07-08T09:23:30;30.10;40.00
62589;DHT22;58504;48.770;9.148;2023-07-08T09:26:02;30.20;39.30
62589;DHT22;58504;48.770;9.148;2023-07-08T09:28:38;30.50;38.90
62589;DHT22;58504;48.770;9.148;2023-07-08T09:31:08;30.90;38.60
62589;DHT22;58504;48.770;9.148;2023-07-08T09:33:38;31.40;38.10
62589;DHT22;58504;48.770;9.148;2023-07-08T09:36:17;31.80;37.50
62589;DHT22;58504;48.770;9.148;2023-07-08T09:38:47;32.10;37.00
62589;DHT22;58504;48.770;9.148;2023-07-08T09:41:28;32.60;36.40
62589;DHT22;58504;48.770;9.148;2023-07-08T09:44:04;33.00;35.80
62589;DHT22;58504;48.770;9.148;2023-07-08T09:46:37;33.80;34.90
62589;DHT22;58504;48.770;9.148;2023-07-08T09:49:16;34.50;33.80
62589;DHT22;58504;48.770;9.148;2023-07-08T09:51:43;34.90;32.90
62589;DHT22;58504;48.770;9.148;2023-07-08T09:54:10;35.30;32.30
62589;DHT22;58504;48.770;9.148;2023-07-08T09:56:41;35.20;31.50
62589;DHT22;58504;48.770;9.148;2023-07-08T09:59:11;35.50;31.80
62589;DHT22;58504;48.770;9.148;2023-07-08T10:01:40;35.70;31.30
62589;DHT22;58504;48.770;9.148;2023-07-08T10:04:07;35.70;31.00
62589;DHT22;58504;48.770;9.148;2023-07-08T10:06:35;35.50;30.80
62589;DHT22;58504;48.770;9.148;2023-07-08T10:09:03;34.60;31.60
62589;DHT22;58504;48.770;9.148;2023-07-08T10:11:33;33.60;33.30
62589;DHT22;58504;48.770;9.148;2023-07-08T10:14:05;32.40;35.30
62589;DHT22;58504;48.770;9.148;2023-07-08T10:16:33;31.30;37.10
62589;DHT22;58504;48.770;9.148;2023-07-08T10:19:04;30.60;38.70
62589;DHT22;58504;48.770;9.148;2023-07-08T10:21:38;29.90;40.10
62589;DHT22;58504;48.770;9.148;2023-07-08T10:24:20;29.30;41.30
62589;DHT22;58504;48.770;9.148;2023-07-08T10:26:57;28.90;42.30
62589;DHT22;58504;48.770;9.148;2023-07-08T10:29:32;29.20;42.30
62589;DHT22;58504;48.770;9.148;2023-07-08T10:32:08;29.50;41.80
62589;DHT22;58504;48.770;9.148;2023-07-08T10:34:47;29.90;41.00
62589;DHT22;58504;48.770;9.148;2023-07-08T10:37:24;29.50;41.40
62589;DHT22;58504;48.770;9.148;2023-07-08T10:40:02;29.20;41.90
62589;DHT22;58504;48.770;9.148;2023-07-08T10:42:38;28.90;42.40
62589;DHT22;58504;48.770;9.148;2023-07-08T10:45:13;28.70;42.90
62589;DHT22;58504;48.770;9.148;2023-07-08T10:47:57;28.50;43.30
62589;DHT22;58504;48.770;9.148;2023-07-08T10:50:46;28.30;43.70
62589;DHT22;58504;48.770;9.148;2023-07-08T10:53:30;28.10;44.00
62589;DHT22;58504;48.770;9.148;2023-07-08T10:56:00;28.00;44.40
62589;DHT22;58504;48.770;9.148;2023-07-08T10:58:43;27.90;44.60
62589;DHT22;58504;48.770;9.148;2023-07-08T11:01:22;27.80;44.90
62589;DHT22;58504;48.770;9.148;2023-07-08T11:04:03;27.70;44.90
62589;DHT22;58504;48.770;9.148;2023-07-08T11:06:44;27.70;44.90
62589;DHT22;58504;48.770;9.148;2023-07-08T11:09:16;27.70;45.20
62589;DHT22;58504;48.770;9.148;2023-07-08T11:11:49;27.70;45.40
62589;DHT22;58504;48.770;9.148;2023-07-08T11:14:27;27.70;45.50
62589;DHT22;58504;48.770;9.148;2023-07-08T11:17:07;27.60;45.80
62589;DHT22;58504;48.770;9.148;2023-07-08T11:19:38;27.60;46.20
62589;DHT22;58504;48.770;9.148;2023-07-08T11:22:11;27.50;46.30
62589;DHT22;58504;48.770;9.148;2023-07-08T11:24:44;27.50;46.50
62589;DHT22;58504;48.770;9.148;2023-07-08T11:27:15;27.40;47.00
62589;DHT22;58504;48.770;9.148;2023-07-08T11:29:47;27.30;47.10
62589;DHT22;58504;48.770;9.148;2023-07-08T11:32:18;27.30;47.20
62589;DHT22;58504;48.770;9.148;2023-07-08T11:34:48;27.20;47.00
62589;DHT22;58504;48.770;9.148;2023-07-08T11:37:17;27.10;47.10
62589;DHT22;58504;48.770;9.148;2023-07-08T11:39:46;27.00;47.10
62589;DHT22;58504;48.770;9.148;2023-07-08T11:42:21;27.00;47.20
62589;DHT22;58504;48.770;9.148;2023-07-08T11:44:51;26.90;47.10
62589;DHT22;58504;48.770;9.148;2023-07-08T11:47:24;26.90;47.20
62589;DHT22;58504;48.770;9.148;2023-07-08T11:49:52;26.80;47.40
62589;DHT22;58504;48.770;9.148;2023-07-08T11:52:22;26.70;47.70
62589;DHT22;58504;48.770;9.148;2023-07-08T11:54:57;26.70;48.10
62589;DHT22;58504;48.770;9.148;2023-07-08T11:57:29;26.70;48.80
62589;DHT22;58504;48.770;9.148;2023-07-08T12:00:15;26.70;49.10
62589;DHT22;58504;48.770;9.148;2023-07-08T12:02:55;26.60;49.50
62589;DHT22;58504;48.770;9.148;2023-07-08T12:05:33;26.50;49.40
62589;DHT22;58504;48.770;9.148;2023-07-08T12:08:02;26.50;49.60
62589;DHT22;58504;48.770;9.148;2023-07-08T12:10:39;26.50;50.00
62589;DHT22;58504;48.770;9.148;2023-07-08T12:13:11;26.50;50.40
62589;DHT22;58504;48.770;9.148;2023-07-08T12:15:39;26.40;50.80
62589;DHT22;58504;48.770;9.148;2023-07-08T12:18:13;26.40;50.80
62589;DHT22;58504;48.770;9.148;2023-07-08T12:20:41;26.30;50.80
62589;DHT22;58504;48.770;9.148;2023-07-08T12:23:12;26.30;50.90
62589;DHT22;58504;48.770;9.148;2023-07-08T12:25:39;26.30;50.90
62589;DHT22;58504;48.770;9.148;2023-07-08T12:28:05;26.20;50.80
62589;DHT22;58504;48.770;9.148;2023-07-08T12:30:33;26.30;50.80
62589;DHT22;58504;48.770;9.148;2023-07-08T12:33:00;26.30;50.70
62589;DHT22;58504;48.770;9.148;2023-07-08T12:35:29;26.20;50.80
62589;DHT22;58504;48.770;9.148;2023-07-08T12:37:58;26.20;50.80
62589;DHT22;58504;48.770;9.148;2023-07-08T12:40:28;26.20;50.80
62589;DHT22;58504;48.770;9.148;2023-07-08T12:42:57;26.20;50.80
62589;DHT22;58504;48.770;9.148;2023-07-08T12:45:26;26.20;50.80
62589;DHT22;58504;48.770;9.148;2023-07-08T12:47:53;26.10;50.80
62589;DHT22;58504;48.770;9.148;2023-07-08T12:50:20;26.10;50.90
62589;DHT22;58504;48.770;9.148;2023-07-08T12:52:47;26.10;50.80
62589;DHT22;58504;48.770;9.148;2023-07-08T12:55:15;26.10;50.80
62589;DHT22;58504;48.770;9.148;2023-07-08T12:57:47;26.10;50.80
62589;DHT22;58504;48.770;9.148;2023-07-08T13:00:23;26.10;50.90
62589;DHT22;58504;48.770;9.148;2023-07-08T13:02:56;26.10;50.90
62589;DHT22;58504;48.770;9.148;2023-07-08T13:05:26;26.00;50.90
62589;DHT22;58504;48.770;9.148;2023-07-08T13:07:53;26.00;50.90
62589;DHT22;58504;48.770;9.148;2023-07-08T13:10:22;26.00;50.90
62589;DHT22;58504;48.770;9.148;2023-07-08T13:12:55;26.00;50.90
62589;DHT22;58504;48.770;9.148;2023-07-08T13:15:25;26.00;50.90
62589;DHT22;58504;48.770;9.148;2023-07-08T13:17:54;26.00;51.00
62589;DHT22;58504;48.770;9.148;2023-07-08T13:20:21;26.00;51.00
62589;DHT22;58504;48.770;9.148;2023-07-08T13:22:54;25.90;51.00
62589;DHT22;58504;48.770;9.148;2023-07-08T13:25:26;25.90;51.10
62589;DHT22;58504;48.770;9.148;2023-07-08T13:28:00;25.90;51.20
62589;DHT22;58504;48.770;9.148;2023-07-08T13:30:29;25.90;51.10
62589;DHT22;58504;48.770;9.148;2023-07-08T13:32:57;25.90;51.10
62589;DHT22;58504;48.770;9.148;2023-07-08T13:35:27;25.90;51.20
62589;DHT22;58504;48.770;9.148;2023-07-08T13:37:55;25.90;51.20
62589;DHT22;58504;48.770;9.148;2023-07-08T13:40:22;25.80;51.70
62589;DHT22;58504;48.770;9.148;2023-07-08T13:42:53;25.80;51.20
62589;DHT22;58504;48.770;9.148;2023-07-08T13:45:24;25.80;51.30
62589;DHT22;58504;48.770;9.148;2023-07-08T13:47:59;25.80;51.30
62589;DHT22;58504;48.770;9.148;2023-07-08T13:50:30;25.80;51.20
62589;DHT22;58504;48.770;9.148;2023-07-08T13:52:58;25.80;51.30
62589;DHT22;58504;48.770;9.148;2023-07-08T13:55:26;25.80;51.20
62589;DHT22;58504;48.770;9.148;2023-07-08T13:57:59;25.80;51.30
62589;DHT22;58504;48.770;9.148;2023-07-08T14:00:30;25.80;51.20
62589;DHT22;58504;48.770;9.148;2023-07-08T14:02:57;25.80;51.20
62589;DHT22;58504;48.770;9.148;2023-07-08T14:05:24;25.80;51.20
62589;DHT22;58504;48.770;9.148;2023-07-08T14:07:50;25.80;51.20
62589;DHT22;58504;48.770;9.148;2023-07-08T14:10:17;25.80;51.20
62589;DHT22;58504;48.770;9.148;2023-07-08T14:12:44;25.80;51.20
62589;DHT22;58504;48.770;9.148;2023-07-08T14:15:11;25.80;51.20
62589;DHT22;58504;48.770;9.148;2023-07-08T14:17:39;25.80;51.10
62589;DHT22;58504;48.770;9.148;2023-07-08T14:20:11;25.80;51.10
62589;DHT22;58504;48.770;9.148;2023-07-08T14:22:39;25.80;51.00
62589;DHT22;58504;48.770;9.148;2023-07-08T14:25:08;25.80;51.10
62589;DHT22;58504;48.770;9.148;2023-07-08T14:27:36;25.80;51.20
62589;DHT22;58504;48.770;9.148;2023-07-08T14:30:03;25.80;51.10
62589;DHT22;58504;48.770;9.148;2023-07-08T14:32:30;25.80;51.20
62589;DHT22;58504;48.770;9.148;2023-07-08T14:35:14;25.80;51.10
62589;DHT22;58504;48.770;9.148;2023-07-08T14:37:42;25.80;51.10
62589;DHT22;58504;48.770;9.148;2023-07-08T14:40:26;25.80;51.10
62589;DHT22;58504;48.770;9.148;2023-07-08T14:42:58;25.80;51.10
62589;DHT22;58504;48.770;9.148;2023-07-08T14:45:26;25.80;51.10
62589;DHT22;58504;48.770;9.148;2023-07-08T14:47:53;25.80;51.20
62589;DHT22;58504;48.770;9.148;2023-07-08T14:50:21;25.80;51.20
62589;DHT22;58504;48.770;9.148;2023-07-08T14:52:48;25.80;51.20
62589;DHT22;58504;48.770;9.148;2023-07-08T14:55:15;25.80;51.20
62589;DHT22;58504;48.770;9.148;2023-07-08T14:57:45;25.80;51.20
62589;DHT22;58504;48.770;9.148;2023-07-08T15:00:14;25.80;51.30
62589;DHT22;58504;48.770;9.148;2023-07-08T15:02:43;25.70;51.40
62589;DHT22;58504;48.770;9.148;2023-07-08T15:05:14;25.80;51.30
62589;DHT22;58504;48.770;9.148;2023-07-08T15:07:42;25.70;51.90
62589;DHT22;58504;48.770;9.148;2023-07-08T15:10:09;25.70;51.30
62589;DHT22;58504;48.770;9.148;2023-07-08T15:12:36;25.70;51.40
62589;DHT22;58504;48.770;9.148;2023-07-08T15:15:04;25.70;51.50
62589;DHT22;58504;48.770;9.148;2023-07-08T15:17:31;25.70;51.40
62589;DHT22;58504;48.770;9.148;2023-07-08T15:19:57;25.60;51.40
62589;DHT22;58504;48.770;9.148;2023-07-08T15:22:24;25.70;51.50
62589;DHT22;58504;48.770;9.148;2023-07-08T15:24:52;25.60;51.40
62589;DHT22;58504;48.770;9.148;2023-07-08T15:27:20;25.60;51.50
62589;DHT22;58504;48.770;9.148;2023-07-08T15:29:49;25.60;51.60
62589;DHT22;58504;48.770;9.148;2023-07-08T15:32:15;25.60;51.50
62589;DHT22;58504;48.770;9.148;2023-07-08T15:34:45;25.60;51.50
62589;DHT22;58504;48.770;9.148;2023-07-08T15:37:11;25.60;51.60
62589;DHT22;58504;48.770;9.148;2023-07-08T15:39:38;25.60;51.60
62589;DHT22;58504;48.770;9.148;2023-07-08T15:42:10;25.60;51.60